N417CB KLGB-
Flight info
| Callsign | N417CB |
|---|---|
| Flight time | N/A |
| Altitude | |
| Route | |
| Aircraft | SR22/L-VGD/C |
Departure
| Time | 2026-05-07 02:48 |
|---|---|
| Airport | Long Beach International Airport (KLGB) |
Arrival
| Time | N/A |
|---|---|
| Airport | - |
| Time | Latitude | Longitude | Altitude | Speed | Heading |
|---|---|---|---|---|---|
| 2026-05-07 02:45 | 33.81251 | -118.15019 | 41 ft | 1 kts | 89° |
| 2026-05-07 02:45 | 33.81265 | -118.15006 | 41 ft | 0 kts | 17° |
| 2026-05-07 02:45 | 33.81271 | -118.15004 | 41 ft | 0 kts | 14° |
| 2026-05-07 02:46 | 33.81277 | -118.15003 | 41 ft | 1 kts | 13° |
| 2026-05-07 02:46 | 33.81281 | -118.15002 | 41 ft | 0 kts | 6° |
| 2026-05-07 02:46 | 33.81282 | -118.15002 | 41 ft | 0 kts | 4° |
| 2026-05-07 02:46 | 33.81284 | -118.15002 | 41 ft | 3 kts | 6° |
| 2026-05-07 02:47 | 33.81308 | -118.14937 | 40 ft | 18 kts | 96° |
| 2026-05-07 02:47 | 33.81352 | -118.14858 | 39 ft | 1 kts | 343° |
| 2026-05-07 02:47 | 33.81391 | -118.14884 | 40 ft | 12 kts | 276° |
| 2026-05-07 02:47 | 33.81394 | -118.15289 | 45 ft | 78 kts | 271° |
| 2026-05-07 02:48 | 33.81391 | -118.16015 | 254 ft | 87 kts | 268° |
| 2026-05-07 02:48 | 33.81272 | -118.16725 | 509 ft | 92 kts | 236° |
| 2026-05-07 02:48 | 33.80614 | -118.16903 | 725 ft | 116 kts | 180° |
| 2026-05-07 02:48 | 33.79745 | -118.16777 | 895 ft | 131 kts | 174° |
| 2026-05-07 02:49 | 33.78805 | -118.16644 | 1083 ft | 139 kts | 178° |
| 2026-05-07 02:49 | 33.77831 | -118.16516 | 1285 ft | 143 kts | 176° |
| 2026-05-07 02:49 | 33.76828 | -118.16382 | 1514 ft | 144 kts | 177° |
| 2026-05-07 02:49 | 33.75843 | -118.16248 | 1817 ft | 141 kts | 176° |
| 2026-05-07 02:50 | 33.74871 | -118.16129 | 2121 ft | 141 kts | 176° |
| 2026-05-07 02:50 | 33.73887 | -118.16005 | 2416 ft | 142 kts | 175° |